Terminal Aerodrome Forecast
Issued by NWS Portland, ME

Home | Current Version | Previous Version | Text Only | Print | Product List | Glossary On
Versions: 1 2 3 4 5 6 7 8 9 10 11 12 13 14 15 16 17 18
000
FTUS41 KGYX 061720
TAFCON
TAF
KCON 061720Z 0618/0718 VRB03KT P6SM SCT060
     FM070900 00000KT 4SM BR OVC100
     FM071200 14003KT 5SM HZ OVC025
     FM071500 15005KT P6SM -SHRA OVC025=

USA.gov is the U.S. government's official web portal to all federal, state and local government web resources and services.